createdAt,value
2023-04-02T00:01:22.918Z,79.40
2023-04-02T00:04:22.307Z,79.37
2023-04-02T00:06:57.029Z,79.14
2023-04-02T00:09:38.407Z,79.55
2023-04-02T00:12:22.907Z,79.61
2023-04-02T00:14:58.270Z,79.49
2023-04-02T00:17:28.903Z,79.50
2023-04-02T00:20:04.964Z,79.68
2023-04-02T00:22:35.868Z,80.22
2023-04-02T00:25:19.692Z,79.95
2023-04-02T00:27:52.851Z,79.96
2023-04-02T00:30:23.558Z,79.65
2023-04-02T00:32:55.364Z,80.06
2023-04-02T00:35:31.059Z,79.60
2023-04-02T00:38:02.266Z,79.80
2023-04-02T00:40:35.085Z,80.00
2023-04-02T00:43:16.963Z,79.80
2023-04-02T00:45:54.872Z,80.05
2023-04-02T00:48:45.540Z,80.09
2023-04-02T00:51:25.462Z,80.27
2023-04-02T00:53:59.749Z,80.35
2023-04-02T00:56:35.134Z,80.47
2023-04-02T00:59:15.618Z,80.32
2023-04-02T01:01:46.239Z,80.76
2023-04-02T01:04:36.627Z,80.79
2023-04-02T01:07:12.361Z,80.80
2023-04-02T01:10:17.296Z,80.90
2023-04-02T01:13:01.129Z,80.93
2023-04-02T01:15:54.878Z,81.12
2023-04-02T01:18:37.815Z,80.92
2023-04-02T01:21:34.670Z,80.70
2023-04-02T01:24:07.890Z,80.84
2023-04-02T01:26:57.899Z,81.00
2023-04-02T01:29:34.529Z,81.14
2023-04-02T01:32:08.927Z,81.20
2023-04-02T01:34:39.898Z,81.19
2023-04-02T01:37:27.961Z,81.25
2023-04-02T01:40:16.439Z,81.17
2023-04-02T01:42:56.687Z,81.13
2023-04-02T01:45:30.448Z,81.17
2023-04-02T01:48:02.338Z,80.50
2023-04-02T01:50:37.277Z,80.58
2023-04-02T01:53:13.210Z,80.26
2023-04-02T01:55:48.963Z,80.59
2023-04-02T01:58:27.523Z,80.30
2023-04-02T02:01:06.227Z,79.98
2023-04-02T02:03:38.475Z,80.19
2023-04-02T02:06:10.306Z,80.14
2023-04-02T02:08:44.444Z,79.81
2023-04-02T02:11:19.345Z,80.09
2023-04-02T02:13:50.841Z,79.43
2023-04-02T02:16:24.811Z,79.29
2023-04-02T02:18:58.708Z,79.61
2023-04-02T02:21:41.855Z,79.92
2023-04-02T02:24:22.802Z,79.62
2023-04-02T02:27:04.654Z,79.45
2023-04-02T02:29:41.160Z,79.28
2023-04-02T02:32:15.993Z,79.31
2023-04-02T02:34:52.737Z,79.11
2023-04-02T02:37:30.592Z,79.33
2023-04-02T02:40:05.550Z,79.25
2023-04-02T02:42:38.907Z,79.01
2023-04-02T02:45:18.236Z,79.16
2023-04-02T02:47:52.907Z,79.44
2023-04-02T02:50:30.212Z,79.40
2023-04-02T02:53:03.341Z,79.35
2023-04-02T02:55:39.367Z,79.19
2023-04-02T02:58:33.923Z,79.36
2023-04-02T03:01:23.789Z,79.33
2023-04-02T03:03:59.771Z,79.53
2023-04-02T03:06:30.540Z,79.69
2023-04-02T03:09:13.655Z,79.40
2023-04-02T03:11:52.407Z,79.45
2023-04-02T03:14:33.412Z,79.62
2023-04-02T03:17:13.904Z,79.76
2023-04-02T03:19:52.463Z,79.59
2023-04-02T03:22:30.088Z,79.50
2023-04-02T03:25:07.225Z,80.03
2023-04-02T03:27:43.038Z,80.19
2023-04-02T03:30:33.678Z,79.96
2023-04-02T03:33:09.845Z,80.24
2023-04-02T03:35:46.244Z,80.29
2023-04-02T03:38:23.627Z,80.43
2023-04-02T03:41:06.073Z,80.28
2023-04-02T03:43:43.978Z,80.36
2023-04-02T03:46:27.303Z,80.83
2023-04-02T03:49:04.956Z,81.43
2023-04-02T03:51:44.939Z,80.37
2023-04-02T03:54:19.252Z,80.75
2023-04-02T03:56:50.725Z,80.91
2023-04-02T03:59:39.259Z,81.17
2023-04-02T04:02:25.745Z,80.53
2023-04-02T04:04:58.743Z,80.91
2023-04-02T04:07:38.568Z,81.15
2023-04-02T04:10:11.633Z,81.03
2023-04-02T04:12:47.012Z,81.19
2023-04-02T04:15:25.280Z,81.42
2023-04-02T04:18:02.591Z,81.24
2023-04-02T04:20:46.289Z,81.58
2023-04-02T04:23:34.213Z,81.83
2023-04-02T04:26:20.046Z,81.94
2023-04-02T04:29:05.856Z,81.63
2023-04-02T04:31:47.262Z,81.55
2023-04-02T04:34:25.092Z,81.86
2023-04-02T04:37:01.869Z,82.16
2023-04-02T04:39:45.573Z,82.32
2023-04-02T04:42:23.708Z,82.17
2023-04-02T04:45:01.804Z,82.24
2023-04-02T04:47:38.395Z,82.29
2023-04-02T04:50:16.686Z,82.57
2023-04-02T04:52:47.660Z,82.71
2023-04-02T04:55:38.701Z,82.96
2023-04-02T04:58:21.165Z,82.91
2023-04-02T05:01:02.223Z,82.91
2023-04-02T05:03:38.918Z,83.34
2023-04-02T05:06:28.967Z,83.34
2023-04-02T05:09:03.351Z,83.36
2023-04-02T05:11:42.955Z,83.67
2023-04-02T05:14:33.052Z,84.25
2023-04-02T05:17:10.141Z,83.97
2023-04-02T05:19:46.262Z,84.24
2023-04-02T05:22:27.826Z,84.37
2023-04-02T05:25:12.620Z,84.13
2023-04-02T05:27:52.779Z,83.40
2023-04-02T05:30:52.990Z,83.10
2023-04-02T05:33:27.677Z,83.18
2023-04-02T05:36:04.147Z,82.86
2023-04-02T05:38:41.797Z,83.37
2023-04-02T05:41:20.309Z,83.45
2023-04-02T05:44:00.487Z,83.16
2023-04-02T05:46:38.089Z,83.34
2023-04-02T05:49:18.658Z,83.58
2023-04-02T05:51:55.874Z,83.77
2023-04-02T05:54:33.762Z,83.71
2023-04-02T05:57:08.891Z,83.75
2023-04-02T05:59:46.849Z,83.67
2023-04-02T06:02:25.822Z,83.64
2023-04-02T06:05:02.161Z,83.36
2023-04-02T06:07:45.210Z,83.15
2023-04-02T06:10:24.733Z,83.11
2023-04-02T06:13:03.373Z,83.16
2023-04-02T06:15:41.203Z,83.50
2023-04-02T06:18:21.340Z,83.58
2023-04-02T06:20:53.305Z,83.86
2023-04-02T06:23:31.320Z,83.66
2023-04-02T06:26:09.224Z,83.85
2023-04-02T06:28:48.469Z,83.91
2023-04-02T06:31:34.274Z,83.69
2023-04-02T06:34:08.394Z,84.02
2023-04-02T06:36:38.898Z,84.31
2023-04-02T06:39:20.686Z,84.13
2023-04-02T06:42:01.217Z,84.42
2023-04-02T06:44:52.661Z,84.47
2023-04-02T06:47:47.547Z,84.48
2023-04-02T06:50:31.487Z,84.39
2023-04-02T06:53:09.854Z,84.84
2023-04-02T06:55:48.120Z,84.45
2023-04-02T06:58:24.598Z,84.45
2023-04-02T07:00:56.599Z,84.11
2023-04-02T07:03:41.232Z,84.29
2023-04-02T07:06:21.026Z,84.26
2023-04-02T07:08:54.079Z,83.71
2023-04-02T07:11:27.371Z,83.71
2023-04-02T07:14:01.101Z,83.83
2023-04-02T07:16:34.703Z,83.92
2023-04-02T07:19:07.942Z,83.50
2023-04-02T07:21:41.136Z,83.34
2023-04-02T07:24:11.694Z,83.19
2023-04-02T07:26:42.180Z,82.77
2023-04-02T07:29:17.611Z,83.18
2023-04-02T07:31:48.354Z,83.09
2023-04-02T07:34:21.615Z,83.04
2023-04-02T07:36:52.736Z,83.21
2023-04-02T07:39:23.036Z,83.29
2023-04-02T07:41:58.245Z,82.95
2023-04-02T07:44:28.770Z,82.88
2023-04-02T07:46:59.459Z,82.89
2023-04-02T07:49:32.653Z,82.97
2023-04-02T07:52:03.072Z,82.83
2023-04-02T07:54:36.401Z,82.00
2023-04-02T07:57:07.181Z,82.19
2023-04-02T07:59:37.580Z,81.98
2023-04-02T08:02:08.046Z,82.32
2023-04-02T08:04:41.271Z,82.20
2023-04-02T08:07:11.801Z,82.46
2023-04-02T08:09:42.243Z,82.62
2023-04-02T08:12:15.239Z,82.68
2023-04-02T08:14:45.672Z,82.55
2023-04-02T08:17:16.218Z,82.18
2023-04-02T08:19:54.979Z,82.34
2023-04-02T08:22:27.795Z,82.38
2023-04-02T08:24:59.214Z,82.00
2023-04-02T08:27:30.109Z,81.77
2023-04-02T08:30:00.965Z,81.21
2023-04-02T08:32:31.818Z,80.31
2023-04-02T08:35:05.025Z,79.88
2023-04-02T08:37:35.418Z,80.33
2023-04-02T08:40:07.458Z,80.31
2023-04-02T08:42:46.334Z,80.35
2023-04-02T08:45:25.575Z,79.90
2023-04-02T08:48:00.228Z,79.92
2023-04-02T08:50:37.598Z,80.38
2023-04-02T08:53:13.039Z,80.95
2023-04-02T08:55:49.343Z,81.21
2023-04-02T08:58:35.403Z,80.96
2023-04-02T09:01:09.002Z,80.44
2023-04-02T09:03:43.800Z,80.86
2023-04-02T09:06:20.592Z,80.04
2023-04-02T09:08:54.308Z,79.98
2023-04-02T09:11:29.022Z,80.20
2023-04-02T09:14:02.810Z,80.32
2023-04-02T09:16:47.029Z,81.14
2023-04-02T09:19:24.629Z,80.00
2023-04-02T09:22:09.341Z,80.66
2023-04-02T09:24:40.525Z,80.21
2023-04-02T09:27:22.007Z,80.71
2023-04-02T09:29:56.890Z,81.24
2023-04-02T09:32:43.753Z,80.22
2023-04-02T09:35:26.266Z,78.53
2023-04-02T09:38:23.167Z,78.00
2023-04-02T09:41:03.905Z,78.07
2023-04-02T09:43:36.406Z,77.76
2023-04-02T09:46:09.706Z,77.11
2023-04-02T09:48:44.437Z,76.17
2023-04-02T09:51:20.378Z,75.04
2023-04-02T09:53:56.028Z,75.77
2023-04-02T09:56:27.939Z,76.10
2023-04-02T09:59:09.762Z,75.97
2023-04-02T10:01:42.824Z,75.52
2023-04-02T10:04:38.930Z,75.85
2023-04-02T10:07:10.058Z,76.02
2023-04-02T10:09:43.194Z,76.25
2023-04-02T10:12:17.287Z,76.77
2023-04-02T10:14:52.774Z,75.96
2023-04-02T10:17:29.295Z,75.43
2023-04-02T10:20:06.453Z,74.13
2023-04-02T10:22:37.332Z,74.47
2023-04-02T10:25:17.271Z,75.78
2023-04-02T10:27:54.901Z,73.10
2023-04-02T10:30:30.843Z,72.55
2023-04-02T10:33:06.368Z,70.86
2023-04-02T10:35:46.034Z,70.51
2023-04-02T10:38:29.392Z,71.73
2023-04-02T10:41:07.065Z,70.75
2023-04-02T10:44:18.979Z,69.21
2023-04-02T10:47:03.935Z,69.80
2023-04-02T10:49:44.179Z,69.58
2023-04-02T10:52:23.234Z,69.34
2023-04-02T10:54:56.284Z,68.86
2023-04-02T10:57:38.569Z,68.17
2023-04-02T11:00:22.178Z,68.44
2023-04-02T11:02:59.025Z,68.26
2023-04-02T11:05:40.569Z,68.09
2023-04-02T11:08:19.963Z,66.88
2023-04-02T11:10:55.755Z,66.25
2023-04-02T11:13:34.545Z,65.42
2023-04-02T11:16:05.483Z,66.46
2023-04-02T11:18:38.944Z,67.10
2023-04-02T11:21:10.960Z,67.94
2023-04-02T11:24:01.932Z,67.53
2023-04-02T11:26:41.463Z,67.91
2023-04-02T11:29:30.186Z,69.16
2023-04-02T11:32:34.054Z,69.51
2023-04-02T11:35:40.665Z,70.05
2023-04-02T11:38:55.018Z,68.67
2023-04-02T11:42:04.684Z,66.69
2023-04-02T11:44:37.761Z,65.88
2023-04-02T11:47:25.221Z,65.33
2023-04-02T11:50:31.725Z,66.01
2023-04-02T11:53:06.936Z,64.61
2023-04-02T11:55:38.424Z,64.75
2023-04-02T11:58:36.013Z,65.31
2023-04-02T12:01:52.782Z,64.15
2023-04-02T12:05:04.498Z,65.11
2023-04-02T12:08:05.877Z,65.00
2023-04-02T12:10:54.295Z,65.97
2023-04-02T12:13:58.746Z,66.34
2023-04-02T12:16:33.433Z,65.09
2023-04-02T12:19:04.463Z,63.40
2023-04-02T12:21:35.393Z,64.63
2023-04-02T12:24:07.329Z,64.07
2023-04-02T12:26:42.433Z,64.23
2023-04-02T12:29:39.287Z,62.91
2023-04-02T12:32:25.935Z,62.57
2023-04-02T12:35:01.681Z,64.94
2023-04-02T12:37:32.867Z,65.71
2023-04-02T12:40:07.396Z,65.50
2023-04-02T12:42:39.972Z,66.58
2023-04-02T12:45:27.941Z,66.42
2023-04-02T12:48:01.214Z,66.93
2023-04-02T12:50:32.432Z,67.31
2023-04-02T12:53:02.925Z,68.08
2023-04-02T12:55:33.758Z,68.78
2023-04-02T12:58:04.228Z,68.30
2023-04-02T13:00:39.846Z,69.21
2023-04-02T13:03:23.133Z,68.72
2023-04-02T13:05:57.608Z,67.73
2023-04-02T13:08:33.298Z,67.75
2023-04-02T13:11:06.200Z,68.11
2023-04-02T13:13:39.573Z,67.66
2023-04-02T13:16:31.080Z,67.55
2023-04-02T13:19:32.049Z,67.37
2023-04-02T13:22:04.383Z,68.18
2023-04-02T13:24:36.752Z,70.12
2023-04-02T13:27:07.760Z,71.18
2023-04-02T13:29:39.746Z,72.23
2023-04-02T13:32:15.788Z,72.42
2023-04-02T13:34:46.123Z,72.56
2023-04-02T13:37:16.796Z,72.79
2023-04-02T13:39:47.646Z,72.93
2023-04-02T13:42:18.097Z,73.56
2023-04-02T13:44:49.388Z,74.28
2023-04-02T13:47:22.411Z,74.66
2023-04-02T13:49:53.072Z,75.24
2023-04-02T13:52:23.681Z,76.01
2023-04-02T13:54:58.625Z,76.73
2023-04-02T13:57:29.040Z,77.00
2023-04-02T13:59:59.580Z,77.49
2023-04-02T14:02:33.489Z,77.82
2023-04-02T14:05:17.033Z,78.89
2023-04-02T14:08:02.155Z,79.22
2023-04-02T14:10:50.676Z,78.81
2023-04-02T14:13:48.025Z,78.86
2023-04-02T14:16:43.238Z,76.70
2023-04-02T14:19:36.954Z,76.04
2023-04-02T14:22:21.091Z,76.43
2023-04-02T14:24:59.960Z,76.39
2023-04-02T14:27:40.418Z,76.34
2023-04-02T14:30:20.990Z,76.51
2023-04-02T14:33:01.582Z,76.01
2023-04-02T14:35:40.488Z,75.97
2023-04-02T14:38:20.327Z,75.52
2023-04-02T14:40:53.102Z,75.96
2023-04-02T14:43:27.797Z,75.49
2023-04-02T14:46:04.654Z,76.17
2023-04-02T14:48:51.305Z,76.97
2023-04-02T14:51:33.762Z,75.97
2023-04-02T14:54:12.573Z,76.76
2023-04-02T14:56:49.006Z,76.71
2023-04-02T14:59:32.684Z,77.18
2023-04-02T15:02:11.050Z,77.48
2023-04-02T15:04:47.653Z,77.17
2023-04-02T15:07:26.190Z,77.28
2023-04-02T15:10:06.160Z,77.97
2023-04-02T15:12:40.067Z,77.80
2023-04-02T15:15:33.043Z,78.33
2023-04-02T15:18:15.302Z,79.00
2023-04-02T15:20:58.281Z,78.96
2023-04-02T15:23:49.105Z,79.29
2023-04-02T15:26:26.521Z,79.05
2023-04-02T15:29:09.259Z,78.71
2023-04-02T15:31:49.472Z,79.49
2023-04-02T15:34:27.104Z,78.93
2023-04-02T15:37:23.260Z,77.22
2023-04-02T15:40:26.746Z,76.45
2023-04-02T15:43:08.592Z,76.35
2023-04-02T15:45:54.677Z,75.98
2023-04-02T15:49:01.758Z,76.78
2023-04-02T15:52:00.629Z,77.11
2023-04-02T15:54:51.612Z,76.98
2023-04-02T15:57:42.016Z,76.89
2023-04-02T16:00:26.755Z,76.84
2023-04-02T16:03:24.058Z,77.82
2023-04-02T16:06:17.237Z,76.69
2023-04-02T16:09:05.296Z,77.52
2023-04-02T16:11:36.838Z,76.73
2023-04-02T16:14:31.032Z,76.21
2023-04-02T16:17:17.472Z,76.23
2023-04-02T16:20:00.364Z,75.74
2023-04-02T16:22:33.940Z,75.18
2023-04-02T16:25:13.746Z,75.05
2023-04-02T16:27:50.254Z,75.36
2023-04-02T16:30:51.827Z,75.84
2023-04-02T16:33:39.954Z,74.02
2023-04-02T16:36:25.713Z,73.83
2023-04-02T16:39:04.161Z,73.72
2023-04-02T16:41:49.306Z,74.06
2023-04-02T16:44:31.999Z,74.55
2023-04-02T16:47:26.802Z,73.69
2023-04-02T16:50:04.958Z,73.98
2023-04-02T16:52:49.436Z,74.18
2023-04-02T16:55:38.575Z,74.40
2023-04-02T16:58:27.879Z,74.10
2023-04-02T17:01:02.702Z,72.97
2023-04-02T17:04:13.266Z,72.98
2023-04-02T17:06:46.559Z,72.89
2023-04-02T17:09:23.823Z,72.37
2023-04-02T17:11:59.094Z,72.24
2023-04-02T17:14:36.557Z,73.31
2023-04-02T17:17:08.543Z,72.40
2023-04-02T17:19:44.278Z,72.09
2023-04-02T17:22:21.110Z,72.20
2023-04-02T17:24:56.660Z,72.00
2023-04-02T17:27:32.303Z,72.46
2023-04-02T17:30:08.359Z,72.62
2023-04-02T17:32:39.396Z,72.39
2023-04-02T17:35:25.929Z,72.40
2023-04-02T17:38:04.956Z,74.75
2023-04-02T17:40:43.161Z,72.65
2023-04-02T17:43:21.932Z,71.96
2023-04-02T17:45:56.230Z,71.54
2023-04-02T17:48:37.544Z,71.55
2023-04-02T17:51:19.438Z,71.32
2023-04-02T17:54:04.608Z,72.60
2023-04-02T17:56:56.067Z,72.41
2023-04-02T17:59:54.719Z,71.45
2023-04-02T18:02:42.110Z,72.42
2023-04-02T18:05:25.272Z,71.16
2023-04-02T18:08:12.673Z,71.66
2023-04-02T18:10:52.055Z,72.06
2023-04-02T18:13:36.461Z,71.94
2023-04-02T18:16:28.934Z,71.41
2023-04-02T18:19:12.096Z,70.25
2023-04-02T18:21:52.153Z,70.21
2023-04-02T18:24:50.967Z,70.72
2023-04-02T18:27:38.509Z,70.44
2023-04-02T18:30:21.913Z,71.43
2023-04-02T18:33:24.385Z,71.29
2023-04-02T18:36:02.667Z,70.37
2023-04-02T18:38:43.901Z,70.64
2023-04-02T18:41:54.012Z,70.28
2023-04-02T18:44:43.908Z,69.96
2023-04-02T18:47:22.803Z,69.60
2023-04-02T18:50:05.724Z,69.56
2023-04-02T18:52:37.063Z,70.06
2023-04-02T18:55:15.708Z,69.87
2023-04-02T18:57:52.794Z,68.92
2023-04-02T19:00:32.082Z,68.50
2023-04-02T19:03:07.281Z,68.84
2023-04-02T19:05:45.826Z,68.46
2023-04-02T19:08:22.636Z,68.05
2023-04-02T19:11:01.880Z,67.62
2023-04-02T19:13:35.352Z,67.75
2023-04-02T19:16:28.760Z,67.94
2023-04-02T19:19:12.357Z,67.98
2023-04-02T19:21:57.405Z,67.42
2023-04-02T19:24:46.180Z,66.88
2023-04-02T19:27:25.913Z,66.53
2023-04-02T19:30:30.069Z,67.24
2023-04-02T19:33:09.997Z,66.81
2023-04-02T19:35:50.269Z,66.88
2023-04-02T19:38:39.885Z,66.89
2023-04-02T19:41:16.667Z,66.86
2023-04-02T19:43:47.150Z,69.01
2023-04-02T19:46:20.409Z,69.37
2023-04-02T19:49:00.057Z,68.89
2023-04-02T19:51:30.601Z,69.10
2023-04-02T19:54:01.103Z,68.67
2023-04-02T19:56:42.646Z,66.79
2023-04-02T19:59:23.989Z,66.16
2023-04-02T20:02:03.003Z,65.33
2023-04-02T20:04:33.620Z,66.12
2023-04-02T20:07:19.750Z,65.22
2023-04-02T20:09:56.944Z,65.15
2023-04-02T20:12:27.576Z,65.16
2023-04-02T20:14:58.054Z,64.73
2023-04-02T20:17:31.194Z,65.03
2023-04-02T20:20:01.776Z,64.71
2023-04-02T20:22:32.270Z,64.62
2023-04-02T20:25:03.785Z,64.62
2023-04-02T20:27:37.031Z,64.46
2023-04-02T20:30:08.958Z,64.52
2023-04-02T20:32:42.043Z,64.61
2023-04-02T20:35:12.900Z,64.69
2023-04-02T20:37:43.412Z,65.11
2023-04-02T20:40:15.259Z,64.91
2023-04-02T20:42:45.828Z,65.03
2023-04-02T20:45:16.813Z,65.04
2023-04-02T20:47:50.010Z,65.69
2023-04-02T20:50:21.130Z,65.12
2023-04-02T20:52:51.756Z,65.69
2023-04-02T20:55:22.415Z,66.15
2023-04-02T20:57:56.039Z,65.68
2023-04-02T21:00:26.590Z,65.75
2023-04-02T21:03:00.423Z,65.65
2023-04-02T21:05:30.994Z,65.64
2023-04-02T21:08:01.997Z,65.82
2023-04-02T21:10:32.911Z,65.92
2023-04-02T21:13:03.425Z,66.53
2023-04-02T21:15:34.193Z,66.84
2023-04-02T21:18:07.800Z,66.88
2023-04-02T21:20:38.472Z,67.18
2023-04-02T21:23:08.958Z,66.94
2023-04-02T21:25:39.494Z,66.95
2023-04-02T21:28:10.235Z,66.44
2023-04-02T21:30:40.749Z,66.87
2023-04-02T21:33:13.848Z,67.21
2023-04-02T21:35:44.351Z,67.14
2023-04-02T21:38:14.909Z,67.33
2023-04-02T21:40:45.334Z,66.71
2023-04-02T21:43:16.375Z,67.06
2023-04-02T21:45:46.878Z,67.41
2023-04-02T21:48:20.066Z,67.32
2023-04-02T21:50:50.497Z,67.16
2023-04-02T21:53:20.921Z,66.78
2023-04-02T21:55:51.421Z,67.00
2023-04-02T21:58:21.977Z,67.02
2023-04-02T22:00:52.403Z,67.22
2023-04-02T22:03:31.637Z,67.10
2023-04-02T22:06:08.535Z,67.16
2023-04-02T22:08:40.880Z,67.05
2023-04-02T22:11:14.015Z,67.30
2023-04-02T22:13:46.649Z,67.19
2023-04-02T22:16:20.803Z,66.84
2023-04-02T22:18:56.031Z,66.90
2023-04-02T22:21:27.055Z,66.87
2023-04-02T22:23:57.579Z,66.67
2023-04-02T22:26:28.488Z,66.86
2023-04-02T22:28:58.891Z,67.32
2023-04-02T22:31:33.600Z,66.86
2023-04-02T22:34:08.609Z,66.58
2023-04-02T22:36:38.813Z,66.73
2023-04-02T22:39:12.368Z,66.39
2023-04-02T22:41:43.555Z,66.52
2023-04-02T22:44:19.443Z,65.92
2023-04-02T22:46:49.883Z,66.00
2023-04-02T22:49:22.847Z,66.28
2023-04-02T22:51:53.447Z,66.17
2023-04-02T22:54:23.772Z,66.10
2023-04-02T22:56:54.349Z,65.99
2023-04-02T22:59:24.872Z,66.26
2023-04-02T23:01:55.594Z,66.00
2023-04-02T23:04:28.677Z,65.84
2023-04-02T23:06:59.107Z,66.01
2023-04-02T23:09:29.678Z,66.22
2023-04-02T23:12:00.043Z,66.09
2023-04-02T23:14:30.687Z,66.09
2023-04-02T23:17:01.076Z,66.13
2023-04-02T23:19:34.187Z,65.91
2023-04-02T23:22:04.542Z,66.30
2023-04-02T23:24:35.270Z,66.00
2023-04-02T23:27:06.191Z,66.03
2023-04-02T23:29:36.560Z,66.33
2023-04-02T23:32:07.723Z,66.64
2023-04-02T23:34:40.792Z,66.59
2023-04-02T23:37:11.184Z,66.35
2023-04-02T23:39:41.911Z,66.33
2023-04-02T23:42:12.891Z,66.43
2023-04-02T23:44:43.292Z,66.43
2023-04-02T23:47:13.687Z,66.53
2023-04-02T23:49:48.150Z,66.78
2023-04-02T23:52:18.552Z,67.00
2023-04-02T23:54:48.917Z,67.11
2023-04-02T23:57:19.477Z,67.05
2023-04-02T23:59:50.048Z,66.73
